Time;durP1;ratioP1;P1;durP2;ratioP2;P2;SDS_P1;SDS_P2;PMS_P1;PMS_P2;Temp;Humidity;BMP_temperature;BMP_pressure;BME280_temperature;BME280_humidity;BME280_pressure;Samples;Min_cycle;Max_cycle;Signal;HPM_P1;HPM_P2
2021/05/14 07:35:13;;;;;;;;;;;;;;;;;;5121224;27;20105;-71
2021/05/14 07:37:40;;;;;;;0.10;0.10;;;;;;;;;;5089236;28;19953;-71
2021/05/14 07:40:05;;;;;;;0.10;0.10;;;;;;;;;;5112051;28;20024;-70
2021/05/14 07:42:30;;;;;;;0.10;0.10;;;;;;;;;;5094308;28;20077;-70
2021/05/14 07:44:55;;;;;;;0.33;0.20;;;;;;;;;;5079625;28;20039;-76
2021/05/14 07:47:21;;;;;;;0.10;0.10;;;;;;;;;;5096380;28;20650;-71
2021/05/14 07:49:46;;;;;;;0.10;0.10;;;;;;;;;;5092706;28;20269;-74
2021/05/14 07:52:11;;;;;;;0.10;0.10;;;;;;;;;;5090292;28;20012;-70
2021/05/14 07:54:36;;;;;;;0.10;0.10;;;;;;;;;;5089011;28;20064;-71
2021/05/14 07:57:02;;;;;;;0.10;0.10;;;;;;;;;;5087835;28;20266;-72
2021/05/14 07:59:27;;;;;;;0.05;0.05;;;;;;;;;;5071885;28;20647;-72
2021/05/14 08:01:53;;;;;;;0.00;0.00;;;;;;;;;;5072227;28;20024;-71
2021/05/14 08:04:18;;;;;;;0.00;0.00;;;;;;;;;;5088237;28;20591;-72
2021/05/14 08:06:43;;;;;;;0.00;0.00;;;;;;;;;;5089687;28;20553;-72
2021/05/14 08:09:10;;;;;;;0.00;0.00;;;;;;;;;;5089639;28;20081;-73
2021/05/14 08:11:36;;;;;;;0.00;0.00;;;;;;;;;;5089865;28;20371;-72
2021/05/14 08:14:01;;;;;;;0.00;0.00;;;;;;;;;;5087265;28;20028;-71
2021/05/14 08:16:26;;;;;;;0.10;0.10;;;;;;;;;;5107237;28;20042;-72
2021/05/14 08:18:51;;;;;;;0.00;0.00;;;;;;;;;;5106836;28;20023;-72
2021/05/14 08:21:18;;;;;;;0.10;0.10;;;;;;;;;;5107431;28;20026;-72
2021/05/14 08:23:43;;;;;;;0.00;0.00;;;;;;;;;;5107142;28;20117;-72
2021/05/14 08:26:09;;;;;;;0.00;0.00;;;;;;;;;;5106688;28;20506;-74
2021/05/14 08:28:34;;;;;;;0.10;0.10;;;;;;;;;;5107768;27;20276;-71
2021/05/14 08:31:01;;;;;;;0.00;0.00;;;;;;;;;;5125602;28;20039;-74
2021/05/14 08:33:26;;;;;;;0.00;0.00;;;;;;;;;;5104796;28;20289;-74
2021/05/14 08:35:52;;;;;;;0.08;0.08;;;;;;;;;;5099916;28;20016;-74
2021/05/14 08:38:17;;;;;;;0.00;0.00;;;;;;;;;;5093970;28;20460;-74
2021/05/14 08:40:42;;;;;;;0.00;0.00;;;;;;;;;;5100579;28;20310;-74
2021/05/14 08:43:07;;;;;;;0.00;0.00;;;;;;;;;;5112746;28;20074;-74
2021/05/14 08:45:33;;;;;;;0.00;0.00;;;;;;;;;;5080693;28;20327;-74
2021/05/14 08:47:58;;;;;;;0.00;0.00;;;;;;;;;;5063023;28;20031;-74
2021/05/14 08:50:27;;;;;;;0.00;0.00;;;;;;;;;;5068586;28;20027;-75
2021/05/14 08:52:53;;;;;;;0.00;0.00;;;;;;;;;;5076658;28;20417;-75
2021/05/14 08:55:23;;;;;;;0.10;0.10;;;;;;;;;;5071186;28;20043;-75
2021/05/14 08:57:48;;;;;;;0.00;0.00;;;;;;;;;;5084315;28;20012;-75
2021/05/14 09:00:14;;;;;;;0.00;0.00;;;;;;;;;;5090145;28;20024;-74
2021/05/14 09:02:40;;;;;;;0.00;0.00;;;;;;;;;;5068065;28;20483;-74
2021/05/14 09:05:20;;;;;;;0.00;0.00;;;;;;;;;;5106380;28;20551;-75
2021/05/14 09:07:45;;;;;;;0.00;0.00;;;;;;;;;;5087182;28;20024;-74
2021/05/14 09:10:11;;;;;;;0.00;0.00;;;;;;;;;;5087998;28;20099;-74
2021/05/14 09:12:37;;;;;;;0.00;0.00;;;;;;;;;;5079703;28;20408;-74
2021/05/14 09:15:35;;;;;;;0.00;0.00;;;;;;;;;;5067451;28;20488;-74
2021/05/14 09:18:04;;;;;;;0.00;0.00;;;;;;;;;;5040722;28;20448;-74
2021/05/14 09:20:30;;;;;;;0.00;0.00;;;;;;;;;;5063105;28;20019;-75
2021/05/14 09:22:55;;;;;;;0.00;0.00;;;;;;;;;;5083582;28;20016;-75
2021/05/14 09:25:20;;;;;;;0.00;0.00;;;;;;;;;;5062175;28;20031;-75
2021/05/14 09:27:46;;;;;;;0.00;0.00;;;;;;;;;;5079004;28;20266;-75
2021/05/14 09:30:11;;;;;;;0.00;0.00;;;;;;;;;;5065521;28;20024;-75
2021/05/14 09:32:38;;;;;;;0.00;0.00;;;;;;;;;;5066920;28;20751;-75
2021/05/14 09:35:04;;;;;;;0.00;0.00;;;;;;;;;;5085470;28;20396;-71
2021/05/14 09:37:29;;;;;;;0.00;0.00;;;;;;;;;;5085347;28;20107;-70
2021/05/14 09:40:13;;;;;;;0.00;0.00;;;;;;;;;;5062360;28;20115;-70
2021/05/14 09:42:39;;;;;;;0.00;0.00;;;;;;;;;;5085139;28;20025;-70
2021/05/14 09:45:23;;;;;;;0.00;0.00;;;;;;;;;;5081735;28;20035;-71
2021/05/14 09:48:00;;;;;;;0.00;0.00;;;;;;;;;;5074683;28;20035;-70
2021/05/14 09:50:33;;;;;;;0.00;0.00;;;;;;;;;;5111399;28;20031;-70
2021/05/14 09:53:05;;;;;;;0.00;0.00;;;;;;;;;;5085731;28;20498;-70
2021/05/14 09:55:30;;;;;;;0.00;0.00;;;;;;;;;;5065446;28;20016;-70
2021/05/14 09:58:04;;;;;;;0.00;0.00;;;;;;;;;;5065702;28;20027;-70
2021/05/14 10:00:29;;;;;;;0.00;0.00;;;;;;;;;;5069053;28;20375;-70
2021/05/14 10:03:00;;;;;;;0.00;0.00;;;;;;;;;;5076111;28;20091;-71
2021/05/14 10:05:25;;;;;;;0.00;0.00;;;;;;;;;;5072004;28;20025;-70
2021/05/14 10:07:50;;;;;;;0.00;0.00;;;;;;;;;;5061543;28;20120;-70
2021/05/14 10:10:15;;;;;;;0.00;0.00;;;;;;;;;;5084289;28;20027;-70
2021/05/14 10:12:41;;;;;;;0.00;0.00;;;;;;;;;;5077783;28;20020;-70
2021/05/14 10:15:06;;;;;;;0.00;0.00;;;;;;;;;;5099293;28;20023;-70
2021/05/14 10:17:32;;;;;;;0.00;0.00;;;;;;;;;;5069329;28;20259;-71
2021/05/14 10:19:57;;;;;;;0.00;0.00;;;;;;;;;;5070853;28;20059;-70
2021/05/14 10:22:29;;;;;;;0.00;0.00;;;;;;;;;;5090396;28;20431;-71
2021/05/14 10:24:58;;;;;;;0.00;0.00;;;;;;;;;;5066234;28;20027;-70
2021/05/14 10:27:24;;;;;;;0.00;0.00;;;;;;;;;;5075556;28;20024;-71
2021/05/14 10:29:51;;;;;;;0.00;0.00;;;;;;;;;;5101198;28;20015;-71
2021/05/14 10:32:16;;;;;;;0.00;0.00;;;;;;;;;;5076675;28;20019;-71
2021/05/14 10:34:44;;;;;;;0.00;0.00;;;;;;;;;;5086588;28;20040;-71
2021/05/14 10:37:09;;;;;;;0.00;0.00;;;;;;;;;;5086144;28;20771;-70
2021/05/14 10:39:38;;;;;;;0.00;0.00;;;;;;;;;;5089708;28;20020;-70
2021/05/14 10:42:07;;;;;;;0.00;0.00;;;;;;;;;;5074395;28;20081;-71
2021/05/14 10:44:40;;;;;;;0.00;0.00;;;;;;;;;;5069322;28;20019;-70
2021/05/14 10:47:20;;;;;;;0.00;0.00;;;;;;;;;;5060355;28;20228;-70
2021/05/14 10:49:46;;;;;;;0.00;0.00;;;;;;;;;;5080587;28;20031;-71
2021/05/14 10:52:11;;;;;;;0.00;0.00;;;;;;;;;;5074101;28;20024;-71
2021/05/14 10:54:40;;;;;;;0.00;0.00;;;;;;;;;;5059308;28;20073;-71
2021/05/14 10:57:14;;;;;;;0.00;0.00;;;;;;;;;;5076139;28;20383;-70
2021/05/14 10:59:43;;;;;;;0.00;0.00;;;;;;;;;;5079924;28;20077;-71
2021/05/14 11:02:23;;;;;;;0.00;0.00;;;;;;;;;;5071372;28;20024;-72
2021/05/14 11:04:49;;;;;;;0.00;0.00;;;;;;;;;;5081637;28;20035;-69
2021/05/14 11:07:29;;;;;;;0.00;0.00;;;;;;;;;;5075998;28;20414;-71
2021/05/14 11:10:13;;;;;;;0.00;0.00;;;;;;;;;;5079371;28;20499;-70
2021/05/14 11:12:38;;;;;;;0.00;0.00;;;;;;;;;;5090189;28;20020;-71
2021/05/14 11:15:04;;;;;;;0.00;0.00;;;;;;;;;;5093552;28;20039;-73
2021/05/14 11:17:29;;;;;;;0.00;0.00;;;;;;;;;;5061359;28;20461;-73
2021/05/14 11:19:55;;;;;;;0.00;0.00;;;;;;;;;;5088857;28;20016;-74
2021/05/14 11:22:23;;;;;;;0.00;0.00;;;;;;;;;;5062171;28;20047;-75
2021/05/14 11:24:50;;;;;;;0.00;0.00;;;;;;;;;;5077058;28;20020;-75
2021/05/14 11:27:27;;;;;;;0.00;0.00;;;;;;;;;;5080426;28;20028;-75
2021/05/14 11:29:53;;;;;;;0.00;0.00;;;;;;;;;;5090750;28;20024;-76
2021/05/14 11:32:28;;;;;;;0.00;0.00;;;;;;;;;;5091908;28;20457;-75
2021/05/14 11:35:09;;;;;;;0.00;0.00;;;;;;;;;;5058711;28;20093;-74
2021/05/14 11:37:35;;;;;;;0.00;0.00;;;;;;;;;;5071821;28;20020;-74
2021/05/14 11:40:05;;;;;;;0.00;0.00;;;;;;;;;;5052931;28;20480;-74
2021/05/14 11:42:30;;;;;;;0.00;0.00;;;;;;;;;;5056533;28;20024;-74
2021/05/14 11:44:56;;;;;;;0.00;0.00;;;;;;;;;;5089503;28;20020;-74
2021/05/14 11:47:21;;;;;;;0.00;0.00;;;;;;;;;;5054833;28;20261;-75
2021/05/14 11:49:46;;;;;;;0.00;0.00;;;;;;;;;;5054750;28;20024;-75
2021/05/14 11:52:12;;;;;;;0.00;0.00;;;;;;;;;;5071394;28;20016;-75
2021/05/14 11:54:37;;;;;;;0.00;0.00;;;;;;;;;;5086911;28;20024;-75
2021/05/14 11:57:02;;;;;;;0.00;0.00;;;;;;;;;;5072095;28;20380;-75
2021/05/14 11:59:27;;;;;;;0.00;0.00;;;;;;;;;;5056570;28;20290;-75
2021/05/14 12:01:52;;;;;;;0.00;0.00;;;;;;;;;;5088852;28;20024;-75
2021/05/14 12:04:18;;;;;;;0.00;0.00;;;;;;;;;;5084307;28;20263;-76
2021/05/14 12:06:47;;;;;;;0.00;0.00;;;;;;;;;;5071755;28;20019;-75
2021/05/14 12:09:12;;;;;;;0.00;0.00;;;;;;;;;;5070292;28;20016;-76
2021/05/14 12:11:38;;;;;;;0.00;0.00;;;;;;;;;;5066978;28;20020;-75
2021/05/14 12:14:03;;;;;;;0.00;0.00;;;;;;;;;;5067821;28;20499;-76
2021/05/14 12:16:28;;;;;;;0.00;0.00;;;;;;;;;;5050860;28;20039;-75
2021/05/14 12:18:53;;;;;;;0.00;0.00;;;;;;;;;;5055503;28;20070;-76
2021/05/14 12:21:25;;;;;;;0.00;0.00;;;;;;;;;;5054094;28;20266;-74
2021/05/14 12:23:51;;;;;;;0.00;0.00;;;;;;;;;;5055666;28;20400;-74
2021/05/14 12:26:16;;;;;;;0.00;0.00;;;;;;;;;;5091132;28;20031;-74
2021/05/14 12:28:42;;;;;;;0.00;0.00;;;;;;;;;;5057897;28;20020;-73
2021/05/14 12:31:07;;;;;;;0.00;0.00;;;;;;;;;;5076295;28;20027;-75
2021/05/14 12:33:33;;;;;;;0.00;0.00;;;;;;;;;;5093227;28;20380;-75
2021/05/14 12:35:59;;;;;;;0.00;0.00;;;;;;;;;;5067493;28;20392;-75
2021/05/14 12:38:39;;;;;;;0.00;0.00;;;;;;;;;;5079461;28;20016;-75
2021/05/14 12:41:21;;;;;;;0.00;0.00;;;;;;;;;;5084465;28;20043;-75
2021/05/14 12:43:46;;;;;;;0.00;0.00;;;;;;;;;;5078345;28;20020;-75
2021/05/14 12:46:11;;;;;;;0.00;0.00;;;;;;;;;;5065824;28;20369;-74
2021/05/14 12:48:36;;;;;;;0.00;0.00;;;;;;;;;;5078485;28;20363;-75
2021/05/14 12:51:02;;;;;;;0.00;0.00;;;;;;;;;;5105556;28;20764;-75
2021/05/14 12:53:27;;;;;;;0.00;0.00;;;;;;;;;;5078710;28;20274;-74
2021/05/14 12:55:52;;;;;;;0.00;0.00;;;;;;;;;;5068689;28;20131;-74
2021/05/14 12:58:18;;;;;;;0.00;0.00;;;;;;;;;;5069376;28;20020;-75
2021/05/14 13:00:43;;;;;;;0.00;0.00;;;;;;;;;;5101939;28;20077;-75
2021/05/14 13:03:11;;;;;;;0.00;0.00;;;;;;;;;;5080036;28;20036;-75
2021/05/14 13:05:36;;;;;;;0.00;0.00;;;;;;;;;;5086387;28;20392;-75
2021/05/14 13:08:02;;;;;;;0.00;0.00;;;;;;;;;;5081765;28;20027;-74
2021/05/14 13:10:34;;;;;;;0.00;0.00;;;;;;;;;;5087706;28;20387;-75
2021/05/14 13:12:59;;;;;;;0.00;0.00;;;;;;;;;;5074851;28;20511;-75
2021/05/14 13:15:24;;;;;;;0.00;0.00;;;;;;;;;;5077965;28;20040;-75
2021/05/14 13:17:49;;;;;;;0.00;0.00;;;;;;;;;;5066261;28;20024;-74
2021/05/14 13:20:14;;;;;;;0.00;0.00;;;;;;;;;;5085740;28;20782;-75
2021/05/14 13:22:40;;;;;;;0.00;0.00;;;;;;;;;;5103108;28;20016;-75
2021/05/14 13:25:05;;;;;;;0.00;0.00;;;;;;;;;;5084777;28;20277;-76
2021/05/14 13:27:30;;;;;;;0.00;0.00;;;;;;;;;;5084028;28;20266;-75
2021/05/14 13:29:55;;;;;;;0.00;0.00;;;;;;;;;;5080185;28;20024;-75
2021/05/14 13:32:20;;;;;;;0.00;0.00;;;;;;;;;;5060992;28;20282;-75
2021/05/14 13:34:46;;;;;;;0.00;0.00;;;;;;;;;;5084334;28;20638;-73
2021/05/14 13:37:11;;;;;;;0.00;0.00;;;;;;;;;;5082563;28;20266;-73
2021/05/14 13:39:36;;;;;;;0.00;0.00;;;;;;;;;;5093742;28;20266;-75
2021/05/14 13:42:01;;;;;;;0.00;0.00;;;;;;;;;;5066407;28;20259;-74
2021/05/14 13:44:27;;;;;;;0.00;0.00;;;;;;;;;;5065419;28;20837;-75
2021/05/14 13:46:52;;;;;;;0.00;0.00;;;;;;;;;;5068513;28;20035;-76
2021/05/14 13:49:18;;;;;;;0.00;0.00;;;;;;;;;;5096278;28;20447;-75
2021/05/14 13:51:43;;;;;;;0.00;0.00;;;;;;;;;;5097116;28;20285;-76
2021/05/14 13:54:09;;;;;;;0.00;0.00;;;;;;;;;;5113867;28;20032;-76
2021/05/14 13:56:34;;;;;;;0.00;0.00;;;;;;;;;;5100253;28;20266;-74
2021/05/14 13:58:59;;;;;;;0.00;0.00;;;;;;;;;;5079440;28;20047;-74
2021/05/14 14:01:24;;;;;;;0.00;0.00;;;;;;;;;;5096326;28;20713;-74
2021/05/14 14:03:49;;;;;;;0.00;0.00;;;;;;;;;;5090945;28;20317;-75
2021/05/14 14:06:15;;;;;;;0.00;0.00;;;;;;;;;;5079073;28;20016;-76
2021/05/14 14:08:40;;;;;;;0.00;0.00;;;;;;;;;;5064042;28;20070;-76
2021/05/14 14:11:07;;;;;;;0.00;0.00;;;;;;;;;;5078031;28;20070;-76
2021/05/14 14:13:32;;;;;;;0.00;0.00;;;;;;;;;;5068696;28;20027;-76
2021/05/14 14:15:57;;;;;;;0.00;0.00;;;;;;;;;;5067270;28;20016;-76
2021/05/14 14:18:22;;;;;;;0.00;0.00;;;;;;;;;;5069623;28;20087;-74
2021/05/14 14:20:47;;;;;;;0.00;0.00;;;;;;;;;;5065461;28;20009;-74
2021/05/14 14:23:13;;;;;;;0.00;0.00;;;;;;;;;;5065673;28;20309;-75
2021/05/14 14:25:38;;;;;;;0.00;0.00;;;;;;;;;;5065013;28;20532;-74
2021/05/14 14:28:03;;;;;;;0.00;0.00;;;;;;;;;;5079558;28;20026;-75
2021/05/14 14:30:29;;;;;;;0.00;0.00;;;;;;;;;;5059110;28;20267;-75
2021/05/14 14:32:54;;;;;;;0.00;0.00;;;;;;;;;;5072956;28;20377;-75
2021/05/14 14:35:19;;;;;;;0.00;0.00;;;;;;;;;;5075994;28;20796;-75
2021/05/14 14:37:44;;;;;;;0.00;0.00;;;;;;;;;;5079541;28;20272;-74
2021/05/14 14:40:10;;;;;;;0.00;0.00;;;;;;;;;;5075981;28;20376;-74
2021/05/14 14:42:36;;;;;;;0.00;0.00;;;;;;;;;;5096821;28;20058;-74
2021/05/14 14:45:01;;;;;;;0.00;0.00;;;;;;;;;;5077446;28;20047;-75
2021/05/14 14:47:26;;;;;;;0.00;0.00;;;;;;;;;;5077792;28;20046;-75
2021/05/14 14:49:52;;;;;;;0.00;0.00;;;;;;;;;;5056702;28;20267;-75
2021/05/14 14:52:17;;;;;;;0.00;0.00;;;;;;;;;;5077094;28;20353;-74
2021/05/14 14:54:45;;;;;;;0.00;0.00;;;;;;;;;;5066908;28;20020;-74
2021/05/14 14:57:10;;;;;;;0.00;0.00;;;;;;;;;;5076242;28;20016;-75
2021/05/14 14:59:35;;;;;;;0.00;0.00;;;;;;;;;;5074966;28;20027;-74
2021/05/14 15:02:00;;;;;;;0.00;0.00;;;;;;;;;;5078739;28;20034;-74
2021/05/14 15:04:26;;;;;;;0.00;0.00;;;;;;;;;;5095637;28;20070;-74
2021/05/14 15:06:51;;;;;;;0.00;0.00;;;;;;;;;;5066229;28;20026;-74
2021/05/14 15:09:16;;;;;;;0.00;0.00;;;;;;;;;;5081317;28;20037;-74
2021/05/14 15:11:44;;;;;;;0.00;0.00;;;;;;;;;;5081740;28;20103;-74
2021/05/14 15:14:11;;;;;;;0.00;0.00;;;;;;;;;;5073102;28;20274;-74
2021/05/14 15:16:38;;;;;;;0.00;0.00;;;;;;;;;;5064402;28;20020;-74
2021/05/14 15:19:03;;;;;;;0.00;0.00;;;;;;;;;;5077226;28;20027;-74
2021/05/14 15:21:29;;;;;;;0.00;0.00;;;;;;;;;;5078145;28;20016;-75
2021/05/14 15:23:54;;;;;;;0.00;0.00;;;;;;;;;;5060937;28;20024;-73
2021/05/14 15:26:19;;;;;;;0.00;0.00;;;;;;;;;;5058371;28;20274;-75
2021/05/14 15:28:45;;;;;;;0.00;0.00;;;;;;;;;;5076277;28;20025;-73
2021/05/14 15:31:10;;;;;;;0.00;0.00;;;;;;;;;;5075515;28;20021;-72
2021/05/14 15:33:35;;;;;;;0.00;0.00;;;;;;;;;;5055126;28;20651;-75
2021/05/14 15:36:05;;;;;;;0.00;0.00;;;;;;;;;;5046509;28;20284;-73
2021/05/14 15:38:30;;;;;;;0.00;0.00;;;;;;;;;;5059995;28;20373;-72
2021/05/14 15:40:56;;;;;;;0.00;0.00;;;;;;;;;;5049888;28;20024;-73
2021/05/14 15:43:21;;;;;;;0.00;0.00;;;;;;;;;;5066215;28;20028;-73
2021/05/14 15:45:46;;;;;;;0.00;0.00;;;;;;;;;;5051585;28;20024;-72
2021/05/14 15:48:14;;;;;;;0.00;0.00;;;;;;;;;;5067256;28;20024;-75
2021/05/14 15:50:40;;;;;;;0.00;0.00;;;;;;;;;;5081654;28;20258;-74
2021/05/14 15:53:05;;;;;;;0.00;0.00;;;;;;;;;;5063673;28;20103;-72
2021/05/14 15:55:30;;;;;;;0.00;0.00;;;;;;;;;;5065622;28;20020;-74
2021/05/14 15:57:55;;;;;;;0.00;0.00;;;;;;;;;;5057673;28;20441;-75
2021/05/14 16:00:21;;;;;;;0.00;0.00;;;;;;;;;;5086004;28;20066;-72
2021/05/14 16:02:47;;;;;;;0.00;0.00;;;;;;;;;;5071290;28;20020;-73
2021/05/14 16:05:12;;;;;;;0.00;0.00;;;;;;;;;;5071627;28;20452;-72
2021/05/14 16:07:38;;;;;;;0.00;0.00;;;;;;;;;;5069793;28;20074;-72
2021/05/14 16:10:03;;;;;;;0.00;0.00;;;;;;;;;;5071619;28;20031;-73
2021/05/14 16:12:29;;;;;;;0.00;0.00;;;;;;;;;;5052092;28;20036;-73
2021/05/14 16:14:54;;;;;;;0.00;0.00;;;;;;;;;;5071891;28;20019;-73
2021/05/14 16:17:23;;;;;;;0.00;0.00;;;;;;;;;;5070173;28;20073;-72
2021/05/14 16:19:50;;;;;;;0.00;0.00;;;;;;;;;;5067855;28;20666;-73
2021/05/14 16:22:20;;;;;;;0.00;0.00;;;;;;;;;;5069554;28;20014;-72
2021/05/14 16:24:45;;;;;;;0.00;0.00;;;;;;;;;;5086854;28;20016;-73
2021/05/14 16:27:11;;;;;;;0.00;0.00;;;;;;;;;;5070002;28;20024;-73
2021/05/14 16:29:41;;;;;;;0.00;0.00;;;;;;;;;;5054502;28;20275;-73
2021/05/14 16:32:07;;;;;;;0.00;0.00;;;;;;;;;;5064754;28;20262;-73
2021/05/14 16:34:32;;;;;;;0.00;0.00;;;;;;;;;;5079114;28;20044;-73
2021/05/14 16:36:58;;;;;;;0.00;0.00;;;;;;;;;;5105286;28;20015;-73
2021/05/14 16:39:24;;;;;;;0.00;0.00;;;;;;;;;;5087421;28;20402;-72
2021/05/14 16:41:49;;;;;;;0.00;0.00;;;;;;;;;;5070063;28;20046;-72
2021/05/14 16:44:14;;;;;;;0.00;0.00;;;;;;;;;;5062404;28;20317;-72
2021/05/14 16:46:39;;;;;;;0.00;0.00;;;;;;;;;;5078216;28;20024;-73
2021/05/14 16:49:04;;;;;;;0.00;0.00;;;;;;;;;;5101821;28;20310;-75
2021/05/14 16:51:30;;;;;;;0.00;0.00;;;;;;;;;;5082163;28;20028;-75
2021/05/14 16:53:55;;;;;;;0.00;0.00;;;;;;;;;;5073337;28;20095;-75
2021/05/14 16:56:20;;;;;;;0.00;0.00;;;;;;;;;;5061958;28;20261;-76
2021/05/14 16:58:45;;;;;;;0.00;0.00;;;;;;;;;;5075868;28;20262;-77
2021/05/14 17:01:10;;;;;;;0.00;0.00;;;;;;;;;;5065308;28;20297;-75
2021/05/14 17:03:35;;;;;;;0.00;0.00;;;;;;;;;;5105151;28;20050;-74
2021/05/14 17:06:08;;;;;;;0.00;0.00;;;;;;;;;;5103152;28;20024;-74
2021/05/14 17:08:36;;;;;;;0.00;0.00;;;;;;;;;;5067668;28;20277;-75
2021/05/14 17:11:01;;;;;;;0.00;0.00;;;;;;;;;;5078403;28;20030;-74
2021/05/14 17:13:26;;;;;;;0.00;0.00;;;;;;;;;;5074243;28;20118;-75
2021/05/14 17:15:51;;;;;;;0.00;0.00;;;;;;;;;;5093004;28;20019;-75
2021/05/14 17:18:17;;;;;;;0.00;0.00;;;;;;;;;;5105219;28;20044;-73
2021/05/14 17:20:43;;;;;;;0.00;0.00;;;;;;;;;;5068989;28;20764;-74
2021/05/14 17:23:08;;;;;;;0.00;0.00;;;;;;;;;;5063442;28;20019;-74
2021/05/14 17:25:34;;;;;;;0.00;0.00;;;;;;;;;;5097310;28;20490;-75
2021/05/14 17:27:59;;;;;;;0.00;0.00;;;;;;;;;;5079254;28;20270;-75
2021/05/14 17:30:24;;;;;;;0.00;0.00;;;;;;;;;;5082590;28;20278;-76
2021/05/14 17:32:49;;;;;;;0.00;0.00;;;;;;;;;;5069087;28;20056;-75
2021/05/14 17:35:15;;;;;;;0.00;0.00;;;;;;;;;;5074816;28;20086;-74
2021/05/14 17:37:40;;;;;;;0.00;0.00;;;;;;;;;;5093460;28;20399;-74
2021/05/14 17:40:06;;;;;;;0.00;0.00;;;;;;;;;;5076370;28;20062;-75
2021/05/14 17:42:31;;;;;;;0.00;0.00;;;;;;;;;;5076075;28;20039;-75
2021/05/14 17:44:56;;;;;;;0.00;0.00;;;;;;;;;;5060573;28;20404;-74
2021/05/14 17:47:21;;;;;;;0.00;0.00;;;;;;;;;;5104600;28;20265;-74
2021/05/14 17:49:46;;;;;;;0.00;0.00;;;;;;;;;;5085612;28;20258;-74
2021/05/14 17:52:12;;;;;;;0.00;0.00;;;;;;;;;;5059008;28;20262;-74
2021/05/14 17:54:37;;;;;;;0.00;0.00;;;;;;;;;;5077169;28;20096;-74
2021/05/14 17:57:02;;;;;;;0.00;0.00;;;;;;;;;;5059388;28;20360;-73
2021/05/14 17:59:28;;;;;;;0.00;0.00;;;;;;;;;;5100516;28;20306;-73
2021/05/14 18:01:53;;;;;;;0.00;0.00;;;;;;;;;;5078117;28;20081;-75
2021/05/14 18:04:18;;;;;;;0.00;0.00;;;;;;;;;;5077060;28;20274;-75
2021/05/14 18:06:43;;;;;;;0.00;0.00;;;;;;;;;;5078886;28;20258;-74
2021/05/14 18:09:09;;;;;;;0.00;0.00;;;;;;;;;;5057557;28;20016;-75
2021/05/14 18:11:34;;;;;;;0.00;0.00;;;;;;;;;;5084535;28;20266;-74
2021/05/14 18:13:59;;;;;;;0.00;0.00;;;;;;;;;;5075343;28;20364;-74
2021/05/14 18:16:25;;;;;;;0.00;0.00;;;;;;;;;;5078430;28;20094;-74
2021/05/14 18:19:33;;;;;;;0.00;0.00;;;;;;;;;;5083781;28;20269;-75
2021/05/14 18:21:49;;;;;;;0.00;0.00;;;;;;;;;;5100404;28;20020;-75
2021/05/14 18:24:14;;;;;;;0.00;0.00;;;;;;;;;;5058170;28;20512;-75
2021/05/14 18:26:40;;;;;;;0.00;0.00;;;;;;;;;;5065051;28;20263;-75
2021/05/14 18:29:05;;;;;;;0.00;0.00;;;;;;;;;;5082376;28;20012;-75
2021/05/14 18:31:33;;;;;;;0.00;0.00;;;;;;;;;;5088747;28;20032;-75
2021/05/14 18:33:58;;;;;;;0.00;0.00;;;;;;;;;;5052204;28;20055;-76
2021/05/14 18:36:23;;;;;;;0.00;0.00;;;;;;;;;;5053014;28;20020;-75
2021/05/14 18:38:48;;;;;;;0.00;0.00;;;;;;;;;;5086582;28;20316;-75
2021/05/14 18:41:14;;;;;;;0.00;0.00;;;;;;;;;;5069229;28;20286;-75
2021/05/14 18:43:39;;;;;;;0.00;0.00;;;;;;;;;;5057080;28;21071;-75
2021/05/14 18:46:04;;;;;;;0.00;0.00;;;;;;;;;;5058281;28;20043;-75
2021/05/14 18:48:30;;;;;;;0.00;0.00;;;;;;;;;;5054602;28;20095;-76
2021/05/14 18:50:56;;;;;;;0.00;0.00;;;;;;;;;;5073385;28;20678;-76
2021/05/14 18:53:21;;;;;;;0.00;0.00;;;;;;;;;;5071731;28;20032;-75
2021/05/14 18:55:46;;;;;;;0.00;0.00;;;;;;;;;;5083476;28;20013;-75
2021/05/14 18:58:11;;;;;;;0.00;0.00;;;;;;;;;;5068715;28;20497;-75
2021/05/14 19:00:37;;;;;;;0.00;0.00;;;;;;;;;;5090292;28;20490;-76
2021/05/14 19:03:03;;;;;;;0.00;0.00;;;;;;;;;;5097305;28;20258;-76
2021/05/14 19:05:28;;;;;;;0.00;0.00;;;;;;;;;;5063382;28;20027;-76
2021/05/14 19:07:54;;;;;;;0.00;0.00;;;;;;;;;;5074577;28;20016;-75
2021/05/14 19:10:19;;;;;;;0.00;0.00;;;;;;;;;;5074288;28;20024;-75
2021/05/14 19:12:44;;;;;;;0.00;0.00;;;;;;;;;;5056915;28;20028;-75
2021/05/14 19:15:10;;;;;;;0.00;0.00;;;;;;;;;;5092334;28;20024;-76
2021/05/14 19:17:35;;;;;;;0.00;0.00;;;;;;;;;;5096194;28;20024;-75
2021/05/14 19:20:01;;;;;;;0.00;0.00;;;;;;;;;;5110652;28;20015;-77
2021/05/14 19:22:28;;;;;;;0.00;0.00;;;;;;;;;;5095820;28;20092;-76
2021/05/14 19:25:11;;;;;;;0.00;0.00;;;;;;;;;;5060733;28;20028;-76
2021/05/14 19:46:41;;;;;;;0.00;0.00;;;;;;;;;;5035775;28;20513;-74
2021/05/14 19:49:06;;;;;;;0.00;0.00;;;;;;;;;;5048493;28;20024;-74
2021/05/14 19:51:31;;;;;;;0.00;0.00;;;;;;;;;;5099551;28;20098;-75
2021/05/14 19:53:57;;;;;;;0.00;0.00;;;;;;;;;;5083716;28;20032;-74
2021/05/14 19:56:22;;;;;;;0.00;0.00;;;;;;;;;;5117902;28;20028;-75
2021/05/14 19:58:47;;;;;;;0.00;0.00;;;;;;;;;;5119443;28;20901;-75
2021/05/14 20:01:12;;;;;;;0.00;0.00;;;;;;;;;;5097055;28;20510;-75
2021/05/14 20:03:37;;;;;;;0.00;0.00;;;;;;;;;;5101343;28;20298;-74
2021/05/14 20:06:03;;;;;;;0.00;0.00;;;;;;;;;;5098462;28;20034;-72
2021/05/14 20:08:28;;;;;;;0.10;0.10;;;;;;;;;;5094878;28;20595;-73
2021/05/14 20:10:53;;;;;;;0.03;0.03;;;;;;;;;;5070885;28;20023;-74
2021/05/14 20:13:18;;;;;;;0.00;0.00;;;;;;;;;;5091491;28;20023;-75
2021/05/14 20:15:43;;;;;;;0.00;0.00;;;;;;;;;;5093286;28;20024;-75
2021/05/14 20:18:09;;;;;;;0.00;0.00;;;;;;;;;;5079420;28;20277;-75
2021/05/14 20:20:34;;;;;;;0.00;0.00;;;;;;;;;;5096384;28;20494;-76
2021/05/14 20:22:59;;;;;;;0.00;0.00;;;;;;;;;;5097129;28;20015;-75
2021/05/14 20:25:24;;;;;;;0.00;0.00;;;;;;;;;;5077978;28;20274;-76
2021/05/14 20:27:49;;;;;;;0.00;0.00;;;;;;;;;;5077150;28;20277;-76
2021/05/14 20:30:15;;;;;;;0.00;0.00;;;;;;;;;;5095671;28;20035;-76
2021/05/14 20:32:41;;;;;;;0.00;0.00;;;;;;;;;;5110312;28;20288;-76
2021/05/14 20:35:10;;;;;;;0.00;0.00;;;;;;;;;;5083441;28;20493;-76
2021/05/14 20:37:38;;;;;;;0.00;0.00;;;;;;;;;;5079962;28;20750;-76
2021/05/14 20:40:04;;;;;;;0.00;0.00;;;;;;;;;;5080443;28;20028;-76
2021/05/14 20:42:30;;;;;;;0.00;0.00;;;;;;;;;;5082209;28;20011;-75
2021/05/14 20:44:55;;;;;;;0.00;0.00;;;;;;;;;;5060605;28;20020;-75
2021/05/14 20:47:20;;;;;;;0.00;0.00;;;;;;;;;;5085490;28;20157;-74
2021/05/14 20:49:46;;;;;;;0.00;0.00;;;;;;;;;;5060472;28;20266;-76
2021/05/14 20:52:11;;;;;;;0.10;0.10;;;;;;;;;;5088648;28;20016;-76
2021/05/14 20:54:39;;;;;;;0.00;0.00;;;;;;;;;;5063636;28;20028;-76
2021/05/14 20:57:04;;;;;;;0.00;0.00;;;;;;;;;;5087948;28;20270;-76
2021/05/14 20:59:30;;;;;;;0.00;0.00;;;;;;;;;;5061917;28;20017;-76
2021/05/14 21:01:55;;;;;;;0.00;0.00;;;;;;;;;;5072514;28;20027;-76
2021/05/14 21:04:20;;;;;;;0.00;0.00;;;;;;;;;;5066081;28;20219;-75
2021/05/14 21:06:45;;;;;;;0.00;0.00;;;;;;;;;;5084661;28;20265;-74
2021/05/14 21:09:10;;;;;;;0.00;0.00;;;;;;;;;;5076477;28;20020;-74
2021/05/14 21:11:41;;;;;;;0.00;0.00;;;;;;;;;;5096307;28;20473;-74
2021/05/14 21:14:12;;;;;;;0.00;0.00;;;;;;;;;;5093173;28;20282;-74
2021/05/14 21:16:37;;;;;;;0.00;0.00;;;;;;;;;;5097050;28;20411;-74
2021/05/14 21:19:03;;;;;;;0.00;0.00;;;;;;;;;;5079440;28;20055;-74
2021/05/14 21:21:28;;;;;;;0.00;0.00;;;;;;;;;;5064649;28;20269;-74
2021/05/14 21:23:53;;;;;;;0.00;0.00;;;;;;;;;;5096101;28;20423;-74
2021/05/14 21:26:18;;;;;;;0.00;0.00;;;;;;;;;;5078602;28;20360;-74
2021/05/14 21:28:44;;;;;;;0.00;0.00;;;;;;;;;;5082400;28;20265;-74
2021/05/14 21:31:09;;;;;;;0.00;0.00;;;;;;;;;;5066482;28;20024;-74
2021/05/14 21:33:34;;;;;;;0.00;0.00;;;;;;;;;;5081495;28;20742;-74
2021/05/14 21:35:59;;;;;;;0.00;0.00;;;;;;;;;;5073962;28;20353;-74
2021/05/14 21:38:24;;;;;;;0.00;0.00;;;;;;;;;;5099555;28;20296;-74
2021/05/14 21:40:50;;;;;;;0.00;0.00;;;;;;;;;;5092372;28;20266;-74
2021/05/14 21:43:15;;;;;;;0.00;0.00;;;;;;;;;;5095987;28;20095;-74
2021/05/14 21:45:40;;;;;;;0.00;0.00;;;;;;;;;;5094041;28;20169;-73
2021/05/14 21:48:05;;;;;;;0.00;0.00;;;;;;;;;;5112705;28;20280;-74
2021/05/14 21:50:30;;;;;;;0.00;0.00;;;;;;;;;;5119393;28;20262;-74
2021/05/14 21:52:56;;;;;;;0.00;0.00;;;;;;;;;;5117526;28;20077;-74
2021/05/14 21:55:21;;;;;;;0.00;0.00;;;;;;;;;;5114911;28;20036;-74
2021/05/14 21:57:47;;;;;;;0.00;0.00;;;;;;;;;;5096572;28;20019;-74
2021/05/14 22:00:16;;;;;;;0.00;0.00;;;;;;;;;;5096317;28;20315;-74
2021/05/14 22:02:42;;;;;;;0.00;0.00;;;;;;;;;;5099885;28;20020;-74
2021/05/14 22:05:07;;;;;;;0.00;0.00;;;;;;;;;;5083778;28;20019;-74
2021/05/14 22:07:32;;;;;;;0.00;0.00;;;;;;;;;;5098735;28;20509;-74
2021/05/14 22:09:58;;;;;;;0.00;0.00;;;;;;;;;;5081518;28;20023;-74
2021/05/14 22:12:23;;;;;;;0.00;0.00;;;;;;;;;;5073702;28;20502;-74
2021/05/14 22:14:48;;;;;;;0.00;0.00;;;;;;;;;;5079096;28;20285;-74
2021/05/14 22:17:14;;;;;;;0.00;0.00;;;;;;;;;;5082633;28;20015;-74
2021/05/14 22:19:39;;;;;;;0.00;0.00;;;;;;;;;;5097564;28;20258;-74
2021/05/14 22:22:04;;;;;;;0.00;0.00;;;;;;;;;;5112851;28;20168;-74
2021/05/14 22:24:29;;;;;;;0.00;0.00;;;;;;;;;;5077632;28;20026;-74
2021/05/14 22:26:54;;;;;;;0.00;0.00;;;;;;;;;;5095796;28;20015;-74
2021/05/14 22:29:20;;;;;;;0.00;0.00;;;;;;;;;;5092872;28;20106;-74
2021/05/14 22:31:45;;;;;;;0.00;0.00;;;;;;;;;;5097323;28;20276;-74